Time;durP1;ratioP1;P1;durP2;ratioP2;P2;SDS_P1;SDS_P2;PMS_P1;PMS_P2;Temp;Humidity;BMP_temperature;BMP_pressure;BME280_temperature;BME280_humidity;BME280_pressure;Samples;Min_cycle;Max_cycle;Signal;HPM_P1;HPM_P2
2022/06/18 00:01:51;;;;;;;6.13;3.85;;;24.10;53.00;;;;;;5093318;28;20034;-68
2022/06/18 00:04:20;;;;;;;6.35;4.25;;;24.10;53.00;;;;;;5093239;28;20056;-68
2022/06/18 00:07:03;;;;;;;4.25;3.83;;;24.10;53.00;;;;;;5093295;28;20017;-68
2022/06/18 00:09:33;;;;;;;5.63;3.90;;;24.10;53.00;;;;;;5093170;28;20047;-68
2022/06/18 00:14:51;;;;;;;6.50;3.75;;;24.10;53.00;;;;;;5093396;28;20028;-68
2022/06/18 00:17:18;;;;;;;6.70;3.50;;;24.10;53.50;;;;;;5093230;28;20054;-68
2022/06/18 00:19:46;;;;;;;4.85;3.20;;;24.10;53.10;;;;;;5093190;28;20088;-68
2022/06/18 00:22:16;;;;;;;5.88;3.05;;;24.00;53.10;;;;;;5093155;28;20025;-68
2022/06/18 00:24:43;;;;;;;6.28;3.10;;;24.00;53.20;;;;;;5093054;28;20036;-68
2022/06/18 00:27:11;;;;;;;4.10;3.20;;;24.00;53.20;;;;;;5093122;28;20105;-68
2022/06/18 00:29:37;;;;;;;7.93;3.60;;;24.00;53.40;;;;;;5092994;28;20047;-68
2022/06/18 00:32:03;;;;;;;4.05;3.20;;;24.00;53.40;;;;;;5093036;28;20025;-68
2022/06/18 00:34:28;;;;;;;4.25;3.45;;;24.00;53.40;;;;;;5093039;28;20088;-68
2022/06/18 00:36:54;;;;;;;5.25;3.58;;;24.00;53.50;;;;;;5093004;28;20032;-68
2022/06/18 00:39:20;;;;;;;5.97;3.67;;;24.00;53.60;;;;;;5096386;28;20029;-68
2022/06/18 00:41:51;;;;;;;5.60;3.60;;;23.90;53.60;;;;;;5097033;28;20111;-68
2022/06/18 00:44:27;;;;;;;5.13;3.38;;;23.90;53.70;;;;;;5097003;28;20549;-68
2022/06/18 00:47:14;;;;;;;6.53;3.72;;;23.90;53.70;;;;;;5097106;28;20084;-68
2022/06/18 00:49:57;;;;;;;5.38;3.65;;;24.00;53.80;;;;;;5096921;28;20028;-68
2022/06/18 00:52:39;;;;;;;5.78;3.45;;;24.00;53.80;;;;;;5096898;28;20560;-68
2022/06/18 00:55:23;;;;;;;6.07;3.60;;;23.90;53.70;;;;;;5096810;28;20415;-68
2022/06/18 00:58:00;;;;;;;4.00;3.30;;;23.90;54.00;;;;;;5096897;28;20032;-68
2022/06/18 01:00:34;;;;;;;7.35;3.63;;;23.80;54.10;;;;;;5095621;28;20379;-68
2022/06/18 01:03:00;;;;;;;5.03;3.70;;;23.70;54.30;;;;;;5096628;28;20044;-68
2022/06/18 01:05:33;;;;;;;4.93;3.88;;;23.70;54.60;;;;;;5096519;28;20051;-68
2022/06/18 01:08:10;;;;;;;4.30;3.63;;;23.70;54.70;;;;;;5096359;28;20040;-68
2022/06/18 01:10:41;;;;;;;6.85;3.90;;;23.60;55.00;;;;;;5096528;28;20105;-68
2022/06/18 01:13:10;;;;;;;4.43;3.60;;;23.60;55.10;;;;;;5096482;28;20463;-68
2022/06/18 01:15:37;;;;;;;5.43;4.00;;;23.60;55.10;;;;;;5096557;28;20020;-68
2022/06/18 01:18:04;;;;;;;4.50;3.70;;;23.60;55.10;;;;;;5096332;28;20052;-68
2022/06/18 01:20:38;;;;;;;6.18;3.80;;;23.60;55.20;;;;;;5096269;28;20055;-68
2022/06/18 01:23:10;;;;;;;5.13;3.72;;;23.50;55.30;;;;;;5096195;28;20028;-68
2022/06/18 01:25:36;;;;;;;4.68;4.18;;;23.50;55.50;;;;;;5096248;28;20021;-68
2022/06/18 01:28:02;;;;;;;7.43;4.50;;;23.30;56.00;;;;;;5096093;28;20024;-68
2022/06/18 01:30:35;;;;;;;7.63;4.10;;;23.20;57.50;;;;;;5096138;28;20021;-68
2022/06/18 01:33:03;;;;;;;5.18;4.40;;;23.20;56.60;;;;;;5096109;28;20088;-68
2022/06/18 01:35:29;;;;;;;6.90;4.47;;;23.20;56.60;;;;;;5096134;28;20024;-68
2022/06/18 01:37:56;;;;;;;7.00;4.30;;;23.20;56.60;;;;;;5095956;28;20036;-68
2022/06/18 01:40:43;;;;;;;5.30;4.18;;;23.30;56.70;;;;;;5095935;28;20028;-68
2022/06/18 01:43:13;;;;;;;5.82;4.30;;;23.20;56.70;;;;;;5095871;28;20032;-68
2022/06/18 01:45:40;;;;;;;7.85;4.13;;;23.20;56.90;;;;;;5095881;28;20047;-68
2022/06/18 01:48:14;;;;;;;5.97;4.35;;;23.10;57.10;;;;;;5095725;28;20020;-68
2022/06/18 01:50:49;;;;;;;6.60;4.60;;;23.10;57.20;;;;;;5095658;28;20021;-68
2022/06/18 01:53:26;;;;;;;7.60;4.43;;;23.10;57.40;;;;;;5095769;28;20025;-68
2022/06/18 01:55:58;;;;;;;5.05;4.40;;;23.10;57.40;;;;;;5095709;28;20028;-68
2022/06/18 01:58:33;;;;;;;6.10;4.33;;;23.10;57.40;;;;;;5095657;28;20025;-68
2022/06/18 02:01:02;;;;;;;6.95;4.72;;;23.10;57.50;;;;;;5095721;28;20275;-68
2022/06/18 02:03:28;;;;;;;5.10;4.45;;;23.10;57.80;;;;;;5095431;28;20029;-68
2022/06/18 02:05:54;;;;;;;6.30;4.82;;;23.00;58.00;;;;;;5095465;28;20024;-68
2022/06/18 02:08:21;;;;;;;7.90;4.95;;;22.90;58.40;;;;;;5095228;28;20127;-68
2022/06/18 02:10:59;;;;;;;6.68;5.15;;;22.80;58.50;;;;;;5095399;28;20119;-68
2022/06/18 02:13:31;;;;;;;5.75;4.80;;;22.80;58.60;;;;;;5095517;28;20024;-68
2022/06/18 02:15:59;;;;;;;7.18;4.97;;;22.70;59.00;;;;;;5095338;28;20021;-68
2022/06/18 02:18:27;;;;;;;7.10;5.47;;;22.70;59.20;;;;;;5095221;28;20025;-68
2022/06/18 02:20:55;;;;;;;8.98;5.25;;;22.60;59.60;;;;;;5095184;28;20020;-68
2022/06/18 02:23:22;;;;;;;6.18;5.07;;;22.60;59.60;;;;;;5095073;28;20052;-68
2022/06/18 02:25:49;;;;;;;7.30;5.93;;;22.60;59.50;;;;;;5095072;28;20024;-68
2022/06/18 02:28:33;;;;;;;6.60;5.95;;;22.60;59.60;;;;;;5094942;28;20021;-68
2022/06/18 02:31:00;;;;;;;7.35;5.85;;;22.60;59.90;;;;;;5095059;28;20035;-68
2022/06/18 02:33:56;;;;;;;7.35;5.47;;;22.60;59.90;;;;;;5094956;28;20088;-68
2022/06/18 02:36:30;;;;;;;8.25;5.63;;;22.50;60.40;;;;;;5094940;28;20032;-68
2022/06/18 02:39:21;;;;;;;7.93;5.57;;;22.50;60.40;;;;;;5094914;28;20029;-68
2022/06/18 02:41:47;;;;;;;7.95;6.20;;;22.50;60.50;;;;;;5083822;28;20040;-68
2022/06/18 02:44:14;;;;;;;8.15;5.82;;;22.40;60.70;;;;;;5094774;28;20024;-68
2022/06/18 02:46:41;;;;;;;9.20;5.70;;;22.40;60.90;;;;;;5094660;28;20573;-68
2022/06/18 02:49:09;;;;;;;7.18;5.65;;;22.40;61.00;;;;;;5094594;28;20040;-68
2022/06/18 02:51:36;;;;;;;9.95;5.95;;;22.40;61.00;;;;;;5094564;28;20027;-68
2022/06/18 02:54:03;;;;;;;6.85;6.00;;;22.40;60.90;;;;;;5094516;28;20039;-68
2022/06/18 02:56:28;;;;;;;8.82;6.18;;;22.40;60.80;;;;;;5094445;28;20032;-68
2022/06/18 02:58:55;;;;;;;6.72;5.63;;;22.40;61.00;;;;;;5094418;28;20052;-68
2022/06/18 03:01:25;;;;;;;8.32;6.03;;;22.40;60.80;;;;;;5093549;28;20020;-68
2022/06/18 03:03:55;;;;;;;8.32;5.78;;;22.40;60.90;;;;;;5094289;28;20052;-68
2022/06/18 03:06:23;;;;;;;9.55;6.30;;;22.40;61.80;;;;;;5094246;28;20012;-68
2022/06/18 03:08:49;;;;;;;7.32;6.18;;;22.40;60.20;;;;;;5094018;28;20045;-68
2022/06/18 03:14:19;;;;;;;8.15;6.82;;;22.40;60.80;;;;;;5082043;28;20032;-68
2022/06/18 03:16:44;;;;;;;10.50;6.53;;;22.30;61.80;;;;;;5094170;28;20020;-68
2022/06/18 03:19:34;;;;;;;9.85;6.35;;;22.30;61.00;;;;;;5094026;28;20028;-68
2022/06/18 03:22:05;;;;;;;8.77;6.10;;;22.40;60.80;;;;;;5094002;28;20029;-68
2022/06/18 03:24:31;;;;;;;8.27;6.55;;;22.40;61.00;;;;;;5093937;28;20024;-68
2022/06/18 03:26:56;;;;;;;9.70;6.13;;;22.30;61.00;;;;;;5093872;28;20055;-68
2022/06/18 03:29:22;;;;;;;9.02;6.72;;;22.30;61.00;;;;;;5093774;28;20040;-68
2022/06/18 03:31:48;;;;;;;7.55;6.70;;;22.40;61.00;;;;;;5093795;28;20047;-68
2022/06/18 03:34:14;;;;;;;12.10;7.32;;;22.40;61.00;;;;;;5093764;28;20036;-68
2022/06/18 03:36:40;;;;;;;9.50;6.50;;;22.30;60.90;;;;;;5093736;28;20037;-68
2022/06/18 03:39:07;;;;;;;8.05;6.72;;;22.40;60.90;;;;;;5093632;28;20020;-68
2022/06/18 03:41:33;;;;;;;9.18;6.80;;;22.40;60.90;;;;;;5093626;28;20028;-68
2022/06/18 03:43:58;;;;;;;8.68;6.68;;;22.40;61.00;;;;;;5093551;28;20108;-68
2022/06/18 03:46:24;;;;;;;7.70;6.90;;;22.40;61.00;;;;;;5093571;28;20029;-68
2022/06/18 03:48:52;;;;;;;8.23;6.50;;;22.40;61.00;;;;;;5075728;28;20024;-69
2022/06/18 03:51:19;;;;;;;8.90;6.88;;;22.30;61.10;;;;;;5093603;28;20025;-68
2022/06/18 03:53:44;;;;;;;8.25;7.40;;;22.40;61.20;;;;;;5093442;28;20033;-68
2022/06/18 03:56:13;;;;;;;11.65;7.18;;;22.30;61.20;;;;;;5093444;28;20028;-68
2022/06/18 03:58:39;;;;;;;13.43;7.28;;;22.30;61.30;;;;;;5093402;28;20021;-68
2022/06/18 04:01:05;;;;;;;9.00;7.20;;;22.30;61.80;;;;;;5093381;28;20033;-68
2022/06/18 04:03:31;;;;;;;10.77;6.95;;;22.20;62.80;;;;;;5093282;28;20036;-68
2022/06/18 04:05:57;;;;;;;10.32;7.65;;;22.10;62.30;;;;;;5093357;28;20016;-68
2022/06/18 04:08:23;;;;;;;12.20;7.97;;;22.00;62.50;;;;;;5093120;28;20179;-68
2022/06/18 04:10:49;;;;;;;9.48;7.85;;;22.00;62.70;;;;;;5093289;28;20024;-68
2022/06/18 04:13:15;;;;;;;11.02;8.32;;;22.00;62.70;;;;;;5093069;28;20029;-68
2022/06/18 04:15:41;;;;;;;12.70;8.75;;;22.10;62.90;;;;;;5093193;28;20029;-68
2022/06/18 04:18:09;;;;;;;11.13;8.05;;;22.10;62.90;;;;;;5093189;28;20055;-68
2022/06/18 04:20:37;;;;;;;10.40;8.50;;;22.00;63.00;;;;;;5093147;28;20096;-68
2022/06/18 04:23:04;;;;;;;11.18;8.30;;;22.10;63.20;;;;;;5093022;28;20020;-68
2022/06/18 04:25:30;;;;;;;13.60;8.52;;;22.10;63.00;;;;;;5093122;28;20029;-68
2022/06/18 04:27:57;;;;;;;10.93;8.35;;;22.20;62.90;;;;;;5093022;28;20020;-68
2022/06/18 04:30:27;;;;;;;10.48;8.60;;;22.20;62.80;;;;;;5092125;28;20017;-68
2022/06/18 04:32:54;;;;;;;13.38;8.85;;;22.20;62.90;;;;;;5093226;28;20020;-68
2022/06/18 04:35:21;;;;;;;15.35;9.35;;;22.30;62.90;;;;;;5093034;28;20060;-68
2022/06/18 04:37:48;;;;;;;11.65;9.18;;;22.30;63.00;;;;;;5093152;28;20036;-68
2022/06/18 04:40:18;;;;;;;14.02;9.73;;;22.30;63.00;;;;;;5092976;28;20017;-68
2022/06/18 04:42:44;;;;;;;13.45;9.98;;;22.30;63.90;;;;;;5092913;28;20099;-68
2022/06/18 04:45:11;;;;;;;12.80;9.70;;;22.30;63.10;;;;;;5092933;28;20040;-68
2022/06/18 04:47:36;;;;;;;13.98;10.65;;;22.40;63.10;;;;;;5092885;28;20031;-68
2022/06/18 04:50:04;;;;;;;12.73;10.98;;;22.40;63.20;;;;;;5092756;28;20028;-68
2022/06/18 04:52:29;;;;;;;14.23;11.77;;;22.40;63.10;;;;;;5092896;28;20029;-68
2022/06/18 04:54:55;;;;;;;15.55;11.27;;;22.50;63.40;;;;;;5092846;28;20475;-68
2022/06/18 04:57:21;;;;;;;17.13;11.52;;;22.50;63.30;;;;;;5092800;28;20103;-68
2022/06/18 04:59:48;;;;;;;15.52;12.25;;;22.60;63.00;;;;;;5092794;28;20017;-68
2022/06/18 05:02:22;;;;;;;17.23;12.43;;;22.60;63.30;;;;;;5092756;28;20025;-68
2022/06/18 05:04:49;;;;;;;14.80;12.65;;;22.60;63.50;;;;;;5092732;28;20035;-68
2022/06/18 05:07:14;;;;;;;14.45;12.48;;;22.60;63.60;;;;;;5092684;28;20028;-68
2022/06/18 05:09:40;;;;;;;15.43;12.85;;;22.60;63.40;;;;;;5092664;28;20049;-68
2022/06/18 05:12:06;;;;;;;15.43;13.20;;;22.60;63.70;;;;;;5092672;28;20084;-68
2022/06/18 05:14:32;;;;;;;16.00;13.57;;;22.60;63.70;;;;;;5092657;28;20032;-68
2022/06/18 05:17:00;;;;;;;16.38;14.45;;;22.60;64.20;;;;;;5092634;28;20028;-68
2022/06/18 05:19:27;;;;;;;16.88;14.60;;;22.50;64.60;;;;;;5092650;28;20055;-68
2022/06/18 05:21:53;;;;;;;18.05;14.90;;;22.40;65.10;;;;;;5092593;28;20028;-68
2022/06/18 05:24:19;;;;;;;19.77;15.18;;;22.30;65.60;;;;;;5093948;28;20036;-68
2022/06/18 05:26:48;;;;;;;19.10;15.55;;;22.30;66.10;;;;;;5096186;28;20028;-68
2022/06/18 05:29:15;;;;;;;16.52;14.52;;;22.30;66.30;;;;;;5096126;28;20076;-68
2022/06/18 05:31:41;;;;;;;16.83;14.88;;;22.30;66.30;;;;;;5096113;28;20108;-68
2022/06/18 05:34:07;;;;;;;17.15;14.90;;;22.40;66.20;;;;;;5096106;28;20164;-68
2022/06/18 05:36:33;;;;;;;20.77;15.38;;;22.50;66.10;;;;;;5096082;28;20021;-68
2022/06/18 05:39:00;;;;;;;19.20;14.90;;;22.50;66.10;;;;;;5096015;28;20055;-68
2022/06/18 05:41:26;;;;;;;16.50;14.57;;;22.60;66.20;;;;;;5096103;28;20025;-68
2022/06/18 05:43:52;;;;;;;21.00;13.88;;;22.60;66.30;;;;;;5095885;28;20100;-68
2022/06/18 05:46:18;;;;;;;24.60;14.25;;;22.70;65.80;;;;;;5095850;28;20029;-68
2022/06/18 05:48:44;;;;;;;18.63;13.38;;;22.70;65.70;;;;;;5095953;28;20040;-68
2022/06/18 05:51:10;;;;;;;14.80;11.27;;;22.80;65.60;;;;;;5095772;28;20024;-68
2022/06/18 05:53:36;;;;;;;14.88;10.98;;;22.80;64.90;;;;;;5095708;28;20027;-68
2022/06/18 05:56:02;;;;;;;11.98;10.63;;;22.80;64.70;;;;;;5095688;28;20024;-68
2022/06/18 05:58:28;;;;;;;11.57;10.38;;;22.90;65.90;;;;;;5095607;28;20051;-68
2022/06/18 06:00:54;;;;;;;12.25;10.00;;;22.90;64.60;;;;;;5095610;28;20020;-68
2022/06/18 06:03:20;;;;;;;13.68;10.10;;;22.80;65.60;;;;;;5095542;28;20070;-68
2022/06/18 06:05:46;;;;;;;11.70;10.02;;;22.80;64.80;;;;;;5095456;28;20052;-68
2022/06/18 06:08:13;;;;;;;14.35;10.15;;;22.80;64.50;;;;;;5095320;28;20067;-68
2022/06/18 06:13:24;;;;;;;13.93;10.05;;;22.90;65.20;;;;;;5095557;28;20174;-68
2022/06/18 06:15:52;;;;;;;15.45;11.10;;;22.90;65.20;;;;;;5095347;28;20043;-68
2022/06/18 06:18:19;;;;;;;16.70;11.30;;;23.00;65.10;;;;;;5095293;28;20024;-68
2022/06/18 06:20:47;;;;;;;17.38;10.85;;;23.00;64.90;;;;;;5095214;28;20035;-68
2022/06/18 06:23:13;;;;;;;15.93;11.07;;;23.00;65.20;;;;;;5095125;28;20032;-68
2022/06/18 06:25:41;;;;;;;17.38;11.68;;;23.00;65.00;;;;;;5095156;28;20084;-68
2022/06/18 06:28:09;;;;;;;15.02;11.32;;;23.10;65.30;;;;;;5094993;28;20025;-70
2022/06/18 06:30:35;;;;;;;14.32;11.20;;;23.10;66.20;;;;;;5094034;28;20013;-69
2022/06/18 06:33:01;;;;;;;15.38;11.30;;;23.20;65.40;;;;;;5094963;28;20035;-69
2022/06/18 06:35:26;;;;;;;15.85;11.88;;;23.30;64.80;;;;;;5092631;28;20032;-69
2022/06/18 06:37:52;;;;;;;20.30;11.77;;;23.30;65.00;;;;;;5094867;28;20032;-68
2022/06/18 06:40:18;;;;;;;19.35;11.73;;;23.40;64.80;;;;;;5094858;28;20052;-69
2022/06/18 06:42:47;;;;;;;17.40;12.05;;;23.40;63.60;;;;;;5094707;28;20084;-68
2022/06/18 06:45:19;;;;;;;21.58;12.07;;;23.50;62.70;;;;;;5094712;28;20055;-68
2022/06/18 06:47:45;;;;;;;20.02;11.55;;;23.50;62.20;;;;;;5094817;28;20013;-68
2022/06/18 06:50:13;;;;;;;15.57;11.30;;;23.50;62.50;;;;;;5094804;28;20017;-68
2022/06/18 06:52:39;;;;;;;18.95;12.05;;;23.60;62.00;;;;;;5094625;28;20020;-68
2022/06/18 06:58:01;;;;;;;17.60;11.40;;;23.60;61.20;;;;;;5094591;28;20438;-68
2022/06/18 07:00:27;;;;;;;17.13;11.23;;;23.50;61.40;;;;;;5094406;28;20025;-68
2022/06/18 07:02:53;;;;;;;16.15;10.88;;;23.60;63.60;;;;;;5094078;28;20031;-68
2022/06/18 07:05:19;;;;;;;17.35;10.55;;;23.70;62.10;;;;;;5094327;28;20042;-69
2022/06/18 07:07:44;;;;;;;20.20;12.18;;;23.80;62.40;;;;;;5094128;28;20064;-70
2022/06/18 07:10:11;;;;;;;17.02;11.95;;;23.90;62.70;;;;;;5094241;28;20056;-69
2022/06/18 07:12:38;;;;;;;17.05;10.88;;;24.00;62.30;;;;;;5094168;28;20476;-68
2022/06/18 07:15:04;;;;;;;16.83;11.52;;;23.90;61.50;;;;;;5094126;28;20029;-68
2022/06/18 07:17:30;;;;;;;18.10;11.23;;;24.00;60.60;;;;;;5094023;28;20052;-68
2022/06/18 07:19:56;;;;;;;18.67;11.85;;;24.10;59.90;;;;;;5094047;28;20040;-68
2022/06/18 07:22:22;;;;;;;18.33;12.13;;;24.10;59.90;;;;;;5093016;28;20025;-68
2022/06/18 07:24:47;;;;;;;19.33;11.77;;;24.10;59.90;;;;;;5093848;28;20054;-69
2022/06/18 07:27:13;;;;;;;22.08;11.73;;;24.30;59.40;;;;;;5093890;28;20051;-69
2022/06/18 07:29:38;;;;;;;17.20;12.07;;;24.30;59.30;;;;;;5093806;28;20021;-68
2022/06/18 07:32:13;;;;;;;18.80;12.35;;;24.40;60.10;;;;;;5093795;28;20037;-68
2022/06/18 07:34:39;;;;;;;14.85;11.13;;;24.50;60.80;;;;;;5092917;28;20020;-69
2022/06/18 07:37:04;;;;;;;15.93;12.02;;;24.50;61.70;;;;;;5093771;28;20107;-69
2022/06/18 07:39:30;;;;;;;18.02;12.68;;;24.60;60.40;;;;;;5093696;28;20040;-68
2022/06/18 07:41:56;;;;;;;15.75;12.90;;;24.70;59.30;;;;;;5093806;28;20035;-69
2022/06/18 07:44:23;;;;;;;19.05;12.50;;;24.70;59.00;;;;;;5093527;28;20078;-69
2022/06/18 07:46:49;;;;;;;19.45;12.65;;;24.70;60.30;;;;;;5093221;28;20025;-68
2022/06/18 07:49:16;;;;;;;19.27;13.23;;;24.70;60.50;;;;;;5093546;28;20027;-69
2022/06/18 07:51:41;;;;;;;24.27;12.90;;;24.70;60.10;;;;;;5093485;28;20025;-69
2022/06/18 07:54:12;;;;;;;19.92;12.07;;;24.80;60.50;;;;;;5093614;28;20032;-69
2022/06/18 07:56:38;;;;;;;22.15;12.30;;;24.90;60.60;;;;;;5093531;28;20020;-69
2022/06/18 07:59:03;;;;;;;23.35;12.15;;;24.90;59.00;;;;;;5093451;28;20028;-70
2022/06/18 08:01:29;;;;;;;20.77;12.27;;;24.90;60.40;;;;;;5093415;28;20085;-68
2022/06/18 08:03:55;;;;;;;27.38;12.60;;;25.00;59.50;;;;;;5093468;28;20068;-67
2022/06/18 08:06:21;;;;;;;20.20;12.57;;;25.00;58.70;;;;;;5093291;28;20024;-68
2022/06/18 08:08:47;;;;;;;19.52;12.32;;;25.10;59.40;;;;;;5093124;28;20040;-67
2022/06/18 08:11:16;;;;;;;21.13;12.73;;;25.20;61.20;;;;;;5093338;28;20025;-67
2022/06/18 08:13:42;;;;;;;20.23;11.70;;;25.20;61.50;;;;;;5093386;28;20028;-67
2022/06/18 08:16:11;;;;;;;18.05;11.30;;;25.40;59.40;;;;;;5093284;28;20430;-68
2022/06/18 08:18:37;;;;;;;19.73;11.43;;;25.40;59.70;;;;;;5093267;28;20099;-67
2022/06/18 08:21:21;;;;;;;20.13;11.98;;;25.50;59.40;;;;;;5093214;28;20017;-70
2022/06/18 08:23:47;;;;;;;19.55;11.70;;;25.60;58.80;;;;;;5093195;28;20062;-69
2022/06/18 08:26:13;;;;;;;19.38;11.60;;;25.60;59.00;;;;;;5093181;28;20028;-69
2022/06/18 08:28:39;;;;;;;18.27;11.63;;;25.60;60.30;;;;;;5093037;28;20025;-69
2022/06/18 08:31:07;;;;;;;16.73;12.38;;;25.70;59.50;;;;;;5093093;28;20028;-69
2022/06/18 08:33:33;;;;;;;19.20;11.68;;;25.80;59.10;;;;;;5093088;28;20020;-69
2022/06/18 08:36:01;;;;;;;17.45;12.07;;;25.80;59.00;;;;;;5093088;28;20028;-69
2022/06/18 08:38:28;;;;;;;15.02;10.88;;;25.80;58.30;;;;;;5093057;28;20025;-69
2022/06/18 08:40:56;;;;;;;19.55;11.45;;;25.90;59.10;;;;;;5093047;28;20107;-69
2022/06/18 08:43:49;;;;;;;19.02;12.80;;;26.00;59.40;;;;;;5092863;28;20036;-69
2022/06/18 08:46:49;;;;;;;16.02;10.38;;;26.10;57.20;;;;;;5093126;28;20055;-69
2022/06/18 08:49:21;;;;;;;14.55;9.50;;;26.20;57.20;;;;;;5093042;28;20020;-69
2022/06/18 08:52:11;;;;;;;17.10;10.23;;;26.30;57.40;;;;;;5093097;28;20021;-69
2022/06/18 08:54:49;;;;;;;18.00;10.70;;;26.40;54.70;;;;;;5092934;28;20028;-69
2022/06/18 08:57:33;;;;;;;17.45;10.15;;;26.40;55.10;;;;;;5092972;28;20088;-69
2022/06/18 09:00:18;;;;;;;18.20;9.63;;;26.50;54.70;;;;;;5095697;28;20024;-69
2022/06/18 09:02:50;;;;;;;17.67;9.60;;;26.60;55.70;;;;;;5096665;28;20032;-69
2022/06/18 09:06:06;;;;;;;17.92;8.75;;;26.60;55.10;;;;;;5096737;28;20020;-69
2022/06/18 09:08:44;;;;;;;13.15;8.85;;;26.70;54.90;;;;;;5096279;28;20044;-70
2022/06/18 09:11:34;;;;;;;16.35;8.90;;;26.80;55.00;;;;;;5096579;28;20051;-69
2022/06/18 09:14:09;;;;;;;19.77;9.73;;;26.90;55.10;;;;;;5096551;28;20028;-69
2022/06/18 09:16:42;;;;;;;17.63;10.05;;;26.80;54.70;;;;;;5096540;28;20035;-69
2022/06/18 09:19:12;;;;;;;13.35;8.68;;;26.80;54.20;;;;;;5096442;28;20027;-69
2022/06/18 09:21:57;;;;;;;16.83;8.95;;;26.90;54.60;;;;;;5096446;28;20460;-69
2022/06/18 09:24:29;;;;;;;17.17;11.00;;;27.00;56.70;;;;;;5096241;28;20021;-69
2022/06/18 09:27:08;;;;;;;20.95;10.50;;;27.00;53.90;;;;;;5096320;28;20021;-69
2022/06/18 09:30:06;;;;;;;26.38;19.75;;;27.10;54.20;;;;;;5096181;28;20017;-69
2022/06/18 09:32:38;;;;;;;161.05;142.98;;;27.20;55.50;;;;;;5096090;28;20028;-69
2022/06/18 09:35:42;;;;;;;44.85;32.78;;;27.30;54.80;;;;;;5096041;28;20033;-69
2022/06/18 09:38:11;;;;;;;14.40;8.30;;;27.50;53.70;;;;;;5062239;28;20040;-69
2022/06/18 09:41:18;;;;;;;16.10;8.57;;;27.60;52.90;;;;;;5096045;28;20040;-69
2022/06/18 09:44:07;;;;;;;9.85;6.43;;;27.70;52.00;;;;;;5065644;28;20036;-69
2022/06/18 09:47:12;;;;;;;16.08;7.38;;;27.80;50.80;;;;;;5095938;28;20017;-69
2022/06/18 09:49:38;;;;;;;10.63;6.60;;;27.90;49.80;;;;;;5095891;28;20021;-69
2022/06/18 09:52:11;;;;;;;11.05;6.10;;;27.90;50.60;;;;;;5095834;28;20031;-69
2022/06/18 09:54:45;;;;;;;12.40;6.10;;;27.80;47.90;;;;;;5095827;28;20031;-69
2022/06/18 09:57:15;;;;;;;14.00;6.75;;;27.80;49.00;;;;;;5095770;28;20029;-69
2022/06/18 10:00:09;;;;;;;15.73;7.30;;;27.80;49.00;;;;;;5095755;28;20024;-69
2022/06/18 10:02:41;;;;;;;15.70;7.30;;;27.90;48.30;;;;;;5094652;28;20202;-69
2022/06/18 10:08:02;;;;;;;10.50;6.72;;;28.00;50.50;;;;;;5095467;28;20035;-70
2022/06/18 10:10:29;;;;;;;12.00;7.03;;;28.00;51.10;;;;;;5095225;28;20021;-69
2022/06/18 10:12:59;;;;;;;12.48;7.88;;;28.00;52.40;;;;;;5095473;28;20036;-69
2022/06/18 10:15:26;;;;;;;14.68;7.65;;;28.10;51.80;;;;;;5095363;28;20021;-69
2022/06/18 10:18:02;;;;;;;14.57;7.10;;;28.00;49.10;;;;;;5095471;28;20025;-69
2022/06/18 10:20:34;;;;;;;12.27;6.75;;;28.10;49.60;;;;;;5094285;28;20036;-69
2022/06/18 10:23:28;;;;;;;15.25;6.82;;;28.10;51.50;;;;;;5095355;28;20017;-69
2022/06/18 10:26:07;;;;;;;15.65;7.00;;;28.10;47.40;;;;;;5095344;28;20020;-70
2022/06/18 10:29:10;;;;;;;14.05;7.30;;;28.20;50.50;;;;;;5095177;28;20012;-69
2022/06/18 10:31:50;;;;;;;15.68;7.28;;;28.30;50.50;;;;;;5061231;28;20037;-69
2022/06/18 10:34:54;;;;;;;12.75;6.45;;;28.40;48.10;;;;;;5094012;28;20043;-69
2022/06/18 10:37:32;;;;;;;13.98;6.97;;;28.40;50.60;;;;;;5094984;28;20035;-70
2022/06/18 10:40:16;;;;;;;11.40;6.32;;;28.40;49.30;;;;;;5094952;28;20020;-69
2022/06/18 10:43:09;;;;;;;12.48;6.20;;;28.40;47.20;;;;;;5095050;28;20029;-69
2022/06/18 10:46:06;;;;;;;13.50;7.32;;;28.40;46.90;;;;;;5094855;28;20048;-69
2022/06/18 10:48:32;;;;;;;14.38;6.85;;;28.40;44.40;;;;;;5093850;28;20060;-69
2022/06/18 10:51:00;;;;;;;15.43;7.50;;;28.40;48.40;;;;;;5094698;28;20088;-69
2022/06/18 10:53:30;;;;;;;15.93;7.20;;;28.50;48.50;;;;;;5094609;28;20031;-70
2022/06/18 10:55:59;;;;;;;16.42;7.35;;;28.60;47.20;;;;;;5094761;28;20085;-70
2022/06/18 10:58:25;;;;;;;15.77;8.73;;;28.60;49.60;;;;;;5094514;28;20024;-69
2022/06/18 11:01:01;;;;;;;15.93;9.95;;;28.70;48.10;;;;;;5094462;28;20025;-69
2022/06/18 11:03:30;;;;;;;15.02;7.32;;;28.70;46.20;;;;;;5094541;28;20020;-69
2022/06/18 11:05:57;;;;;;;17.60;7.68;;;28.70;48.60;;;;;;5094415;28;20020;-70
2022/06/18 11:08:23;;;;;;;15.65;7.80;;;28.80;47.70;;;;;;5094166;28;20124;-70
2022/06/18 11:11:02;;;;;;;14.25;7.70;;;28.90;48.10;;;;;;5094271;28;20021;-69
2022/06/18 11:13:44;;;;;;;14.95;8.50;;;29.00;49.50;;;;;;5094209;28;20020;-69
2022/06/18 11:16:15;;;;;;;20.90;8.47;;;29.10;48.50;;;;;;5094372;28;20024;-70
2022/06/18 11:18:46;;;;;;;12.60;7.18;;;29.10;47.40;;;;;;5094118;28;20084;-69
2022/06/18 11:21:23;;;;;;;14.15;7.78;;;29.20;47.80;;;;;;5093580;28;20021;-70
2022/06/18 11:24:16;;;;;;;19.27;8.82;;;29.40;46.80;;;;;;5094114;28;20040;-70
2022/06/18 11:26:43;;;;;;;;;;;29.50;45.00;;;;;;5094546;28;20028;-69
2022/06/18 11:29:21;;;;;;;16.02;7.63;;;29.40;45.70;;;;;;5093983;28;19912;-69
2022/06/18 11:31:51;;;;;;;20.02;8.10;;;29.40;46.80;;;;;;5093940;28;20111;-69
2022/06/18 11:34:24;;;;;;;14.98;7.15;;;29.50;45.60;;;;;;5093933;28;20080;-69
2022/06/18 11:36:53;;;;;;;17.23;8.80;;;29.70;45.30;;;;;;5093988;28;20021;-70
2022/06/18 11:39:31;;;;;;;14.95;7.47;;;29.70;45.90;;;;;;5093889;28;20029;-69
2022/06/18 11:42:20;;;;;;;16.48;7.43;;;29.80;46.60;;;;;;5093774;28;20434;-69
2022/06/18 11:44:57;;;;;;;12.60;6.72;;;29.90;44.80;;;;;;5093140;28;20041;-70
2022/06/18 11:47:32;;;;;;;14.27;7.43;;;30.10;44.40;;;;;;5093696;28;20104;-69
2022/06/18 11:50:17;;;;;;;15.77;7.47;;;30.20;44.20;;;;;;5093700;28;20024;-69
2022/06/18 11:53:35;;;;;;;14.93;7.20;;;30.20;44.50;;;;;;5093772;28;20021;-69
2022/06/18 11:56:05;;;;;;;12.30;6.63;;;30.20;46.00;;;;;;5059980;28;20088;-69
2022/06/18 11:58:50;;;;;;;15.30;6.95;;;30.30;45.90;;;;;;5093545;28;20029;-69
2022/06/18 12:01:22;;;;;;;13.82;7.20;;;30.30;47.70;;;;;;5093547;28;20040;-69
2022/06/18 12:03:55;;;;;;;11.90;6.40;;;30.40;47.40;;;;;;5093443;28;20025;-69
2022/06/18 12:06:27;;;;;;;11.73;6.22;;;30.50;44.30;;;;;;5093421;28;20046;-69
2022/06/18 12:08:53;;;;;;;11.35;6.20;;;30.50;43.20;;;;;;5093265;28;20047;-69
2022/06/18 12:11:43;;;;;;;11.85;6.93;;;30.60;42.70;;;;;;5093377;28;20012;-69
2022/06/18 12:14:12;;;;;;;11.90;5.95;;;30.70;41.00;;;;;;5093415;28;20028;-69
2022/06/18 12:16:45;;;;;;;15.70;6.15;;;30.80;41.70;;;;;;5093330;28;20028;-69
2022/06/18 12:19:23;;;;;;;13.15;6.22;;;30.80;40.80;;;;;;5093457;28;20037;-69
2022/06/18 12:21:56;;;;;;;16.83;6.38;;;30.80;41.90;;;;;;5093236;28;20027;-69
2022/06/18 12:24:34;;;;;;;16.27;5.90;;;30.90;42.70;;;;;;5093203;28;20032;-69
2022/06/18 12:27:02;;;;;;;13.65;6.47;;;31.10;42.50;;;;;;5093334;28;20020;-69
2022/06/18 12:29:37;;;;;;;14.40;7.00;;;31.00;41.80;;;;;;5093050;28;20055;-69
2022/06/18 12:32:18;;;;;;;13.35;6.68;;;31.10;41.40;;;;;;5093139;28;20032;-69
2022/06/18 12:35:09;;;;;;;14.32;6.75;;;31.20;42.60;;;;;;5097376;28;20021;-69
2022/06/18 12:37:42;;;;;;;12.10;6.32;;;31.10;44.00;;;;;;5097316;28;20100;-69
2022/06/18 12:40:24;;;;;;;14.73;6.80;;;31.10;43.10;;;;;;5097393;28;20088;-69
2022/06/18 12:42:50;;;;;;;;;;;31.20;42.30;;;;;;5097677;28;20032;-69
2022/06/18 12:45:27;;;;;;;14.38;6.22;;;31.20;43.80;;;;;;5097108;28;19912;-69
2022/06/18 12:48:05;;;;;;;15.30;6.90;;;31.20;42.90;;;;;;5097147;28;20054;-69
2022/06/18 12:50:57;;;;;;;14.90;6.50;;;31.30;43.00;;;;;;5097056;28;20066;-69
2022/06/18 12:54:09;;;;;;;12.10;7.10;;;31.30;43.00;;;;;;5065699;28;20086;-69
2022/06/18 12:56:40;;;;;;;10.77;6.50;;;31.20;43.60;;;;;;5043196;28;20033;-70
2022/06/18 12:59:24;;;;;;;17.00;6.88;;;31.30;41.60;;;;;;5097026;28;20051;-69
2022/06/18 13:02:08;;;;;;;17.90;6.63;;;31.40;41.10;;;;;;5096875;28;20016;-69
2022/06/18 13:05:10;;;;;;;13.43;6.57;;;31.40;42.10;;;;;;5096658;28;20036;-69
2022/06/18 13:07:59;;;;;;;10.82;6.82;;;31.30;42.70;;;;;;5096759;28;20020;-69
2022/06/18 13:10:36;;;;;;;14.55;7.00;;;31.40;42.20;;;;;;5096823;28;20036;-69
2022/06/18 13:13:44;;;;;;;12.23;6.25;;;31.30;42.30;;;;;;5096667;28;20016;-69
2022/06/18 13:16:19;;;;;;;14.20;6.20;;;31.50;42.70;;;;;;5096647;28;20020;-70
2022/06/18 13:18:46;;;;;;;13.48;6.53;;;31.60;42.40;;;;;;5096527;28;20017;-69